Time;durP1;ratioP1;P1;durP2;ratioP2;P2;SDS_P1;SDS_P2;PMS_P1;PMS_P2;Temp;Humidity;BMP_temperature;BMP_pressure;BME280_temperature;BME280_humidity;BME280_pressure;Samples;Min_cycle;Max_cycle;Signal;HPM_P1;HPM_P2
2023/06/19 00:00:57;;;;;;;10.63;7.93;;;;;;;;;;5052060;28;20055;-77
2023/06/19 00:03:23;;;;;;;10.35;7.88;;;;;;;;;;5033367;28;20116;-83
2023/06/19 00:05:50;;;;;;;8.63;7.35;;;;;;;;;;5034015;28;20052;-83
2023/06/19 00:08:16;;;;;;;13.35;7.40;;;;;;;;;;5023250;28;20050;-82
2023/06/19 00:10:42;;;;;;;10.60;7.82;;;;;;;;;;5037817;28;20052;-77
2023/06/19 00:13:08;;;;;;;8.73;7.78;;;;;;;;;;5054007;28;20063;-78
2023/06/19 00:15:34;;;;;;;10.38;7.65;;;;;;;;;;5053573;28;20041;-77
2023/06/19 00:18:00;;;;;;;11.20;7.75;;;;;;;;;;5053965;28;20091;-77
2023/06/19 00:20:26;;;;;;;10.52;7.80;;;;;;;;;;5054165;28;20391;-76
2023/06/19 00:22:52;;;;;;;9.95;7.78;;;;;;;;;;5053744;28;20098;-77
2023/06/19 00:25:19;;;;;;;9.32;7.57;;;;;;;;;;5053849;28;20124;-76
2023/06/19 00:27:46;;;;;;;9.15;7.25;;;;;;;;;;5037201;28;20053;-77
2023/06/19 00:30:12;;;;;;;10.05;7.63;;;;;;;;;;5053630;28;20116;-77
2023/06/19 00:32:46;;;;;;;10.45;7.82;;;;;;;;;;5054491;28;20045;-77
2023/06/19 00:35:12;;;;;;;9.95;7.63;;;;;;;;;;5038114;28;20099;-77
2023/06/19 00:37:39;;;;;;;12.60;7.28;;;;;;;;;;5053437;28;20398;-77
2023/06/19 00:40:07;;;;;;;9.45;7.70;;;;;;;;;;5053585;28;20044;-77
2023/06/19 00:42:33;;;;;;;11.25;8.13;;;;;;;;;;5053398;28;20524;-77
2023/06/19 00:44:59;;;;;;;9.18;7.70;;;;;;;;;;5053632;28;20394;-77
2023/06/19 00:47:25;;;;;;;9.63;7.57;;;;;;;;;;5053525;28;20048;-77
2023/06/19 00:49:51;;;;;;;8.95;7.60;;;;;;;;;;5052787;28;20037;-77
2023/06/19 00:52:18;;;;;;;9.98;8.00;;;;;;;;;;5053434;28;20041;-77
2023/06/19 00:54:44;;;;;;;9.77;7.85;;;;;;;;;;5035972;28;20080;-77
2023/06/19 00:57:10;;;;;;;12.18;7.45;;;;;;;;;;5036832;28;20041;-77
2023/06/19 00:59:37;;;;;;;10.50;7.53;;;;;;;;;;5036027;28;20052;-77
2023/06/19 01:02:03;;;;;;;10.27;7.60;;;;;;;;;;5053323;28;20504;-77
2023/06/19 01:04:29;;;;;;;9.13;7.70;;;;;;;;;;5036534;28;20044;-78
2023/06/19 01:06:58;;;;;;;11.05;7.45;;;;;;;;;;5053365;28;20041;-77
2023/06/19 01:09:27;;;;;;;9.07;7.32;;;;;;;;;;5053125;28;20041;-77
2023/06/19 01:11:58;;;;;;;10.60;7.53;;;;;;;;;;5036213;28;20509;-77
2023/06/19 01:14:31;;;;;;;10.05;7.05;;;;;;;;;;5052824;28;20033;-77
2023/06/19 01:16:57;;;;;;;9.70;7.35;;;;;;;;;;5053094;28;20118;-77
2023/06/19 01:19:25;;;;;;;9.80;7.50;;;;;;;;;;5052480;28;20048;-77
2023/06/19 01:21:51;;;;;;;9.27;6.97;;;;;;;;;;5052851;28;20124;-77
2023/06/19 01:24:17;;;;;;;10.50;7.38;;;;;;;;;;5052514;28;20049;-77
2023/06/19 01:26:47;;;;;;;10.43;7.18;;;;;;;;;;5052716;28;20398;-82
2023/06/19 01:29:14;;;;;;;8.88;7.05;;;;;;;;;;5052533;28;20040;-83
2023/06/19 01:31:57;;;;;;;15.13;7.47;;;;;;;;;;5052331;28;20071;-82
2023/06/19 01:34:26;;;;;;;7.97;7.10;;;;;;;;;;5052582;28;20501;-83
2023/06/19 01:36:53;;;;;;;12.25;7.53;;;;;;;;;;5052577;28;20044;-82
2023/06/19 01:39:19;;;;;;;10.55;7.45;;;;;;;;;;5051747;28;20086;-82
2023/06/19 01:41:46;;;;;;;9.75;7.30;;;;;;;;;;5052116;28;20123;-82
2023/06/19 01:44:12;;;;;;;9.95;7.47;;;;;;;;;;5052236;28;20053;-82
2023/06/19 01:46:38;;;;;;;10.40;7.60;;;;;;;;;;5035216;28;20045;-82
2023/06/19 01:49:11;;;;;;;8.23;7.07;;;;;;;;;;5036000;28;20037;-83
2023/06/19 01:51:37;;;;;;;9.38;7.43;;;;;;;;;;5052185;28;20215;-82
2023/06/19 01:54:04;;;;;;;9.20;7.43;;;;;;;;;;5052075;28;20095;-82
2023/06/19 01:56:30;;;;;;;10.65;7.97;;;;;;;;;;5051976;28;20044;-82
2023/06/19 01:58:56;;;;;;;10.07;7.75;;;;;;;;;;5051754;28;20059;-77
2023/06/19 02:01:22;;;;;;;9.50;7.65;;;;;;;;;;5047293;28;20044;-77
2023/06/19 02:03:48;;;;;;;11.40;7.40;;;;;;;;;;5051125;28;20057;-77
2023/06/19 02:06:14;;;;;;;13.07;7.32;;;;;;;;;;5067026;28;20044;-77
2023/06/19 02:08:40;;;;;;;10.65;8.30;;;;;;;;;;5051419;28;20551;-77
2023/06/19 02:11:06;;;;;;;9.18;8.18;;;;;;;;;;5051933;28;20397;-77
2023/06/19 02:13:32;;;;;;;12.48;8.20;;;;;;;;;;5051742;28;20036;-83
2023/06/19 02:15:58;;;;;;;10.05;8.00;;;;;;;;;;5051160;28;20044;-83
2023/06/19 02:18:25;;;;;;;11.23;8.40;;;;;;;;;;5051894;28;20138;-83
2023/06/19 02:20:51;;;;;;;13.52;8.20;;;;;;;;;;5051416;28;20086;-83
2023/06/19 02:23:17;;;;;;;11.75;8.20;;;;;;;;;;5051640;28;20029;-83
2023/06/19 02:25:43;;;;;;;11.35;8.00;;;;;;;;;;5051342;28;20040;-77
2023/06/19 02:28:09;;;;;;;10.50;7.70;;;;;;;;;;5034873;28;20043;-77
2023/06/19 02:30:35;;;;;;;10.00;8.18;;;;;;;;;;5050685;28;20037;-78
2023/06/19 02:33:01;;;;;;;9.55;7.80;;;;;;;;;;5050995;28;20041;-77
2023/06/19 02:35:27;;;;;;;12.98;8.45;;;;;;;;;;5051298;28;20116;-78
2023/06/19 02:37:53;;;;;;;10.07;7.85;;;;;;;;;;5034572;28;20037;-78
2023/06/19 02:40:19;;;;;;;10.25;8.38;;;;;;;;;;5051280;28;20032;-78
2023/06/19 02:42:45;;;;;;;11.02;8.60;;;;;;;;;;5051191;28;20045;-78
2023/06/19 02:45:11;;;;;;;10.80;8.18;;;;;;;;;;5034845;28;20452;-78
2023/06/19 02:47:37;;;;;;;10.50;8.23;;;;;;;;;;5034514;28;20045;-83
2023/06/19 02:50:04;;;;;;;11.02;7.70;;;;;;;;;;5050635;28;20037;-78
2023/06/19 02:52:30;;;;;;;10.13;8.32;;;;;;;;;;5051185;28;20041;-78
2023/06/19 02:54:56;;;;;;;10.50;8.02;;;;;;;;;;5033955;28;20074;-77
2023/06/19 02:57:22;;;;;;;8.55;7.60;;;;;;;;;;5051185;28;20553;-78
2023/06/19 02:59:49;;;;;;;9.75;7.72;;;;;;;;;;5084184;28;20128;-78
2023/06/19 03:02:15;;;;;;;9.23;7.70;;;;;;;;;;5050823;28;20037;-77
2023/06/19 03:04:41;;;;;;;10.32;7.00;;;;;;;;;;5034398;28;20041;-78
2023/06/19 03:07:07;;;;;;;8.90;7.07;;;;;;;;;;5050440;28;20067;-78
2023/06/19 03:09:33;;;;;;;10.27;7.47;;;;;;;;;;5051074;28;20528;-78
2023/06/19 03:11:59;;;;;;;9.30;7.40;;;;;;;;;;5050782;28;20452;-78
2023/06/19 03:14:25;;;;;;;9.10;6.93;;;;;;;;;;5050736;28;20099;-78
2023/06/19 03:16:51;;;;;;;8.55;6.85;;;;;;;;;;5033825;28;20043;-78
2023/06/19 03:19:17;;;;;;;10.55;7.10;;;;;;;;;;5050672;28;20044;-78
2023/06/19 03:21:44;;;;;;;9.35;6.78;;;;;;;;;;5051016;28;20557;-78
2023/06/19 03:24:10;;;;;;;11.52;6.70;;;;;;;;;;5050542;28;20401;-78
2023/06/19 03:26:36;;;;;;;9.77;6.20;;;;;;;;;;5034106;28;20049;-78
2023/06/19 03:29:02;;;;;;;8.18;6.05;;;;;;;;;;5050374;28;20041;-82
2023/06/19 03:31:28;;;;;;;8.35;6.32;;;;;;;;;;5050740;28;20194;-82
2023/06/19 03:33:54;;;;;;;7.82;5.90;;;;;;;;;;5033779;28;20048;-83
2023/06/19 03:36:20;;;;;;;8.38;6.03;;;;;;;;;;5050648;28;20394;-83
2023/06/19 03:38:46;;;;;;;8.45;5.63;;;;;;;;;;5050995;28;20076;-82
2023/06/19 03:41:12;;;;;;;8.63;5.50;;;;;;;;;;5035351;28;20045;-83
2023/06/19 03:43:39;;;;;;;7.82;5.10;;;;;;;;;;5054874;28;20044;-83
2023/06/19 03:46:05;;;;;;;9.82;5.00;;;;;;;;;;5038019;28;20045;-82
2023/06/19 03:48:31;;;;;;;8.60;4.20;;;;;;;;;;5054747;28;20041;-83
2023/06/19 03:50:57;;;;;;;10.32;4.10;;;;;;;;;;5055449;28;20049;-83
2023/06/19 03:53:23;;;;;;;4.68;3.65;;;;;;;;;;5054736;28;20043;-82
2023/06/19 03:55:49;;;;;;;5.20;3.65;;;;;;;;;;5037961;28;20045;-83
2023/06/19 03:58:16;;;;;;;5.45;3.40;;;;;;;;;;5054804;28;20574;-83
2023/06/19 04:00:42;;;;;;;9.32;3.60;;;;;;;;;;5052975;28;20048;-83
2023/06/19 04:03:09;;;;;;;5.53;3.10;;;;;;;;;;5075732;28;20045;-83
2023/06/19 04:05:35;;;;;;;5.07;3.20;;;;;;;;;;5037176;28;20048;-83
2023/06/19 04:08:01;;;;;;;5.18;3.47;;;;;;;;;;5054005;28;20041;-83
2023/06/19 04:10:27;;;;;;;9.77;3.47;;;;;;;;;;5054075;28;20041;-83
2023/06/19 04:12:55;;;;;;;4.97;3.25;;;;;;;;;;5037381;28;20110;-82
2023/06/19 04:15:21;;;;;;;7.43;4.07;;;;;;;;;;5030649;28;20367;-83
2023/06/19 04:17:47;;;;;;;6.05;3.58;;;;;;;;;;5030393;28;20559;-82
2023/06/19 04:20:14;;;;;;;39.80;5.07;;;;;;;;;;5053852;28;20041;-83
2023/06/19 04:22:41;;;;;;;8.25;4.18;;;;;;;;;;5054032;28;20049;-82
2023/06/19 04:25:10;;;;;;;13.50;4.20;;;;;;;;;;5054621;28;20043;-83
2023/06/19 04:27:36;;;;;;;7.80;4.40;;;;;;;;;;5054051;28;20130;-82
2023/06/19 04:30:04;;;;;;;5.53;4.28;;;;;;;;;;5054784;28;20095;-78
2023/06/19 04:32:30;;;;;;;5.80;4.78;;;;;;;;;;5054589;28;20053;-78
2023/06/19 04:34:57;;;;;;;10.73;4.15;;;;;;;;;;5080402;28;20047;-78
2023/06/19 04:37:23;;;;;;;7.47;4.50;;;;;;;;;;5053919;28;20098;-83
2023/06/19 04:39:49;;;;;;;5.30;4.15;;;;;;;;;;5053691;28;20037;-83
2023/06/19 04:42:20;;;;;;;8.77;4.40;;;;;;;;;;5053437;28;20638;-83
2023/06/19 04:44:49;;;;;;;6.55;4.28;;;;;;;;;;5053532;28;20051;-83
2023/06/19 04:47:18;;;;;;;5.75;4.38;;;;;;;;;;5036894;28;20064;-83
2023/06/19 04:49:44;;;;;;;6.18;4.45;;;;;;;;;;5053523;28;20041;-83
2023/06/19 04:52:11;;;;;;;7.43;4.50;;;;;;;;;;5036075;28;20040;-82
2023/06/19 04:54:37;;;;;;;6.80;4.63;;;;;;;;;;5053157;28;20056;-82
2023/06/19 04:57:03;;;;;;;5.70;4.43;;;;;;;;;;5053415;28;20049;-83
2023/06/19 04:59:30;;;;;;;8.38;4.97;;;;;;;;;;5053440;28;20052;-82
2023/06/19 05:01:57;;;;;;;6.50;5.50;;;;;;;;;;5053377;28;20049;-83
2023/06/19 05:04:23;;;;;;;9.00;5.43;;;;;;;;;;5036948;28;20552;-82
2023/06/19 05:06:50;;;;;;;7.85;5.20;;;;;;;;;;5053356;28;20095;-82
2023/06/19 05:09:16;;;;;;;7.55;5.40;;;;;;;;;;5052848;28;20041;-82
2023/06/19 05:11:42;;;;;;;14.23;6.20;;;;;;;;;;5053581;28;20049;-84
2023/06/19 05:14:08;;;;;;;8.65;5.90;;;;;;;;;;5052806;28;20048;-83
2023/06/19 05:16:35;;;;;;;7.45;6.10;;;;;;;;;;5053551;28;20029;-83
2023/06/19 05:19:01;;;;;;;10.23;6.82;;;;;;;;;;5052805;28;20159;-84
2023/06/19 05:21:27;;;;;;;11.23;7.13;;;;;;;;;;5053405;28;20053;-83
2023/06/19 05:23:53;;;;;;;10.15;7.38;;;;;;;;;;5036501;28;20048;-83
2023/06/19 05:26:22;;;;;;;9.23;7.88;;;;;;;;;;5052500;28;20041;-83
2023/06/19 05:28:49;;;;;;;11.68;8.95;;;;;;;;;;5053188;28;20041;-83
2023/06/19 05:31:15;;;;;;;14.18;9.30;;;;;;;;;;5052901;28;20049;-83
2023/06/19 05:33:41;;;;;;;15.00;9.50;;;;;;;;;;5036894;28;20041;-83
2023/06/19 05:36:07;;;;;;;10.43;9.13;;;;;;;;;;5037803;28;20128;-83
2023/06/19 05:38:33;;;;;;;13.07;8.93;;;;;;;;;;5054999;28;20521;-82
2023/06/19 05:41:00;;;;;;;8.82;7.32;;;;;;;;;;5022453;28;20032;-83
2023/06/19 05:43:26;;;;;;;9.60;6.10;;;;;;;;;;5054636;28;20095;-83
2023/06/19 05:45:53;;;;;;;7.72;5.30;;;;;;;;;;5058496;28;20043;-83
2023/06/19 05:48:19;;;;;;;6.88;5.47;;;;;;;;;;5054740;28;20041;-83
2023/06/19 05:50:45;;;;;;;8.25;6.00;;;;;;;;;;5055070;28;20040;-82
2023/06/19 05:53:11;;;;;;;9.77;6.20;;;;;;;;;;5055842;28;20120;-83
2023/06/19 05:55:37;;;;;;;10.40;6.80;;;;;;;;;;5056017;28;20056;-83
2023/06/19 05:58:04;;;;;;;9.13;7.50;;;;;;;;;;5054485;28;20048;-83
2023/06/19 06:00:31;;;;;;;9.65;8.18;;;;;;;;;;5054555;28;20624;-83
2023/06/19 06:03:00;;;;;;;15.00;9.45;;;;;;;;;;5054231;28;20060;-82
2023/06/19 06:05:27;;;;;;;11.82;9.85;;;;;;;;;;5051164;28;20490;-83
2023/06/19 06:07:54;;;;;;;12.48;10.52;;;;;;;;;;5035691;28;20070;-83
2023/06/19 06:10:20;;;;;;;14.55;10.98;;;;;;;;;;5051801;28;20048;-84
2023/06/19 06:12:46;;;;;;;15.40;12.10;;;;;;;;;;5052068;28;20037;-84
2023/06/19 06:15:13;;;;;;;15.60;12.40;;;;;;;;;;5051903;28;20040;-83
2023/06/19 06:17:39;;;;;;;15.65;13.02;;;;;;;;;;5035431;28;20041;-84
2023/06/19 06:20:12;;;;;;;16.98;13.57;;;;;;;;;;5051888;28;20045;-83
2023/06/19 06:22:41;;;;;;;18.90;15.32;;;;;;;;;;5052061;28;20052;-83
2023/06/19 06:25:16;;;;;;;;;;;;;;;;;;5089909;27;20393;-74
2023/06/19 06:27:42;;;;;;;24.05;17.92;;;;;;;;;;5088301;28;19939;-74
2023/06/19 06:30:09;;;;;;;24.00;18.70;;;;;;;;;;5087985;28;20119;-75
2023/06/19 06:32:35;;;;;;;26.67;19.33;;;;;;;;;;5088309;28;20042;-74
2023/06/19 06:35:01;;;;;;;29.20;20.45;;;;;;;;;;5071857;28;20477;-75
2023/06/19 06:37:27;;;;;;;28.83;20.75;;;;;;;;;;5087991;28;20048;-75
2023/06/19 06:39:53;;;;;;;28.38;20.60;;;;;;;;;;5088334;28;20484;-74
2023/06/19 06:42:20;;;;;;;33.78;19.77;;;;;;;;;;5071330;28;20067;-75
2023/06/19 06:44:46;;;;;;;27.80;19.45;;;;;;;;;;5089332;28;20123;-77
2023/06/19 06:47:12;;;;;;;31.02;20.58;;;;;;;;;;5082584;28;20040;-76
2023/06/19 06:49:38;;;;;;;28.67;20.08;;;;;;;;;;5079211;28;20055;-76
2023/06/19 06:52:04;;;;;;;26.38;18.75;;;;;;;;;;5088043;28;20040;-75
2023/06/19 06:54:31;;;;;;;29.98;17.95;;;;;;;;;;5087792;28;20448;-76
2023/06/19 06:56:58;;;;;;;27.95;18.98;;;;;;;;;;5087847;28;20178;-75
2023/06/19 06:59:25;;;;;;;24.17;16.60;;;;;;;;;;5087708;28;20052;-75
2023/06/19 07:01:51;;;;;;;22.55;15.60;;;;;;;;;;5088363;28;20040;-75
2023/06/19 07:04:17;;;;;;;22.20;15.63;;;;;;;;;;5087343;28;20051;-75
2023/06/19 07:06:43;;;;;;;22.45;14.43;;;;;;;;;;5087997;28;20040;-75
2023/06/19 07:09:10;;;;;;;19.17;14.23;;;;;;;;;;5087661;28;20040;-76
2023/06/19 07:11:36;;;;;;;16.65;12.15;;;;;;;;;;5087346;28;20040;-75
2023/06/19 07:14:02;;;;;;;16.00;11.88;;;;;;;;;;5087805;28;20131;-75
2023/06/19 07:16:28;;;;;;;14.75;11.20;;;;;;;;;;5080706;28;20044;-74
2023/06/19 07:18:54;;;;;;;13.80;10.30;;;;;;;;;;5088731;28;20451;-75
2023/06/19 07:21:21;;;;;;;14.18;9.88;;;;;;;;;;5088398;28;20044;-76
2023/06/19 07:23:47;;;;;;;14.07;10.05;;;;;;;;;;5087698;28;20048;-76
2023/06/19 07:26:14;;;;;;;15.27;9.27;;;;;;;;;;5082587;28;20123;-75
2023/06/19 07:28:40;;;;;;;10.32;8.60;;;;;;;;;;5067018;28;20044;-75
2023/06/19 07:31:07;;;;;;;10.10;7.60;;;;;;;;;;5050561;28;20615;-75
2023/06/19 07:33:33;;;;;;;11.13;7.38;;;;;;;;;;5066955;28;20481;-75
2023/06/19 07:35:59;;;;;;;9.35;7.03;;;;;;;;;;5073893;28;20072;-75
2023/06/19 07:38:25;;;;;;;9.65;7.18;;;;;;;;;;5070116;28;20041;-76
2023/06/19 07:40:51;;;;;;;9.15;6.65;;;;;;;;;;5053561;28;20049;-75
2023/06/19 07:43:17;;;;;;;10.02;7.30;;;;;;;;;;5054634;28;20498;-76
2023/06/19 07:45:43;;;;;;;12.52;6.70;;;;;;;;;;5053550;28;20043;-75
2023/06/19 07:48:09;;;;;;;7.93;6.13;;;;;;;;;;5053429;28;20041;-80
2023/06/19 07:50:35;;;;;;;8.65;6.20;;;;;;;;;;5072236;28;20036;-79
2023/06/19 07:53:01;;;;;;;8.45;6.53;;;;;;;;;;5057368;28;20481;-80
2023/06/19 07:55:28;;;;;;;9.30;6.40;;;;;;;;;;5066376;28;20068;-79
2023/06/19 07:57:56;;;;;;;9.43;6.50;;;;;;;;;;5053389;28;20075;-79
2023/06/19 08:00:23;;;;;;;9.77;6.90;;;;;;;;;;5054051;28;20048;-78
2023/06/19 08:02:49;;;;;;;7.90;6.13;;;;;;;;;;5039372;28;20505;-81
2023/06/19 08:05:16;;;;;;;8.15;6.57;;;;;;;;;;5053185;28;20045;-79
2023/06/19 08:07:42;;;;;;;9.38;6.88;;;;;;;;;;5052758;28;20099;-81
2023/06/19 08:10:08;;;;;;;9.80;6.07;;;;;;;;;;5053238;28;20147;-79
2023/06/19 08:12:34;;;;;;;12.38;6.63;;;;;;;;;;5052847;28;20072;-79
2023/06/19 08:15:00;;;;;;;19.40;7.20;;;;;;;;;;5050453;28;20044;-79
2023/06/19 08:17:26;;;;;;;12.52;6.45;;;;;;;;;;5043091;28;20045;-79
2023/06/19 08:19:52;;;;;;;8.40;5.95;;;;;;;;;;5053146;28;20516;-79
2023/06/19 08:22:18;;;;;;;12.52;6.03;;;;;;;;;;5052802;28;20040;-79
2023/06/19 08:24:45;;;;;;;11.93;6.85;;;;;;;;;;5052378;28;20049;-80
2023/06/19 08:27:11;;;;;;;17.92;7.05;;;;;;;;;;5053065;28;20123;-78
2023/06/19 08:29:37;;;;;;;12.50;7.72;;;;;;;;;;5052711;28;20455;-78
2023/06/19 08:32:03;;;;;;;17.88;9.10;;;;;;;;;;5052916;28;20072;-77
2023/06/19 08:34:29;;;;;;;17.40;10.18;;;;;;;;;;5052458;28;20110;-77
2023/06/19 08:36:55;;;;;;;19.58;9.93;;;;;;;;;;5052510;28;20060;-78
2023/06/19 08:39:22;;;;;;;17.02;11.00;;;;;;;;;;5035939;28;20049;-77
2023/06/19 08:41:48;;;;;;;13.65;10.18;;;;;;;;;;5052203;28;20060;-77
2023/06/19 08:44:14;;;;;;;16.40;10.73;;;;;;;;;;5052674;28;20501;-77
2023/06/19 08:46:41;;;;;;;15.82;11.45;;;;;;;;;;5034752;28;20045;-78
2023/06/19 08:49:10;;;;;;;13.93;10.93;;;;;;;;;;5075959;28;20044;-78
2023/06/19 08:51:36;;;;;;;14.82;11.30;;;;;;;;;;5058686;28;20127;-79
2023/06/19 08:54:04;;;;;;;22.83;11.85;;;;;;;;;;5055103;28;20062;-78
2023/06/19 08:56:34;;;;;;;13.70;10.82;;;;;;;;;;5072150;28;20083;-79
2023/06/19 08:59:10;;;;;;;15.85;11.32;;;;;;;;;;5072034;28;20041;-77
2023/06/19 09:01:36;;;;;;;14.55;11.55;;;;;;;;;;5073358;28;20562;-77
2023/06/19 09:04:08;;;;;;;18.70;11.73;;;;;;;;;;5060627;28;20102;-79
2023/06/19 09:06:37;;;;;;;15.68;11.98;;;;;;;;;;5051681;28;20037;-78
2023/06/19 09:09:10;;;;;;;16.27;11.95;;;;;;;;;;5035651;28;20032;-78
2023/06/19 09:11:39;;;;;;;15.75;11.88;;;;;;;;;;5052097;28;20051;-79
2023/06/19 09:14:06;;;;;;;15.30;12.65;;;;;;;;;;5051982;28;20079;-79
2023/06/19 09:16:41;;;;;;;14.80;11.95;;;;;;;;;;5051263;28;20516;-76
2023/06/19 09:19:08;;;;;;;15.88;11.68;;;;;;;;;;5051845;28;20044;-79
2023/06/19 09:21:37;;;;;;;17.17;12.55;;;;;;;;;;5051439;28;20044;-81
2023/06/19 09:24:04;;;;;;;16.45;12.88;;;;;;;;;;5052860;28;20083;-79
2023/06/19 09:26:30;;;;;;;16.50;13.32;;;;;;;;;;5051482;28;20128;-79
2023/06/19 09:28:56;;;;;;;16.13;13.38;;;;;;;;;;5051332;28;20068;-78
2023/06/19 09:31:32;;;;;;;15.75;12.30;;;;;;;;;;5052085;28;20095;-79
2023/06/19 09:33:59;;;;;;;16.95;13.32;;;;;;;;;;5051552;28;20072;-78
2023/06/19 09:36:26;;;;;;;17.05;13.00;;;;;;;;;;5051452;28;20040;-79
2023/06/19 09:38:55;;;;;;;17.25;13.73;;;;;;;;;;5051054;28;20045;-78
2023/06/19 09:41:22;;;;;;;17.95;13.27;;;;;;;;;;5051682;28;20107;-79
2023/06/19 09:43:49;;;;;;;16.85;13.52;;;;;;;;;;5051113;28;20045;-78
2023/06/19 09:46:17;;;;;;;16.92;12.38;;;;;;;;;;5051495;28;20167;-77
2023/06/19 09:48:45;;;;;;;17.33;13.07;;;;;;;;;;5052422;28;20041;-78
2023/06/19 09:51:21;;;;;;;14.15;11.77;;;;;;;;;;5052458;28;20119;-80
2023/06/19 09:53:50;;;;;;;16.60;11.10;;;;;;;;;;5051362;28;20498;-80
2023/06/19 09:56:21;;;;;;;12.25;9.88;;;;;;;;;;5051589;28;20128;-79
2023/06/19 09:58:49;;;;;;;14.30;9.48;;;;;;;;;;5034174;28;20044;-78
2023/06/19 10:01:18;;;;;;;11.52;9.00;;;;;;;;;;5051375;28;20059;-77
2023/06/19 10:03:44;;;;;;;15.70;8.73;;;;;;;;;;5020909;28;20033;-79
2023/06/19 10:06:15;;;;;;;12.35;8.15;;;;;;;;;;5051073;28;20044;-78
2023/06/19 10:08:42;;;;;;;12.02;8.77;;;;;;;;;;5050782;28;20084;-79
2023/06/19 10:11:08;;;;;;;11.82;8.57;;;;;;;;;;5052333;28;20049;-78
2023/06/19 10:13:38;;;;;;;10.63;8.48;;;;;;;;;;5050983;28;20048;-78
2023/06/19 10:16:05;;;;;;;11.18;7.68;;;;;;;;;;5046734;28;20160;-79
2023/06/19 10:18:32;;;;;;;10.55;8.30;;;;;;;;;;5084788;28;20059;-80
2023/06/19 10:20:58;;;;;;;11.38;8.38;;;;;;;;;;5050849;28;20501;-79
2023/06/19 10:23:27;;;;;;;13.98;8.70;;;;;;;;;;5033968;28;20080;-78
2023/06/19 10:25:53;;;;;;;14.40;8.80;;;;;;;;;;5050573;28;20043;-80
2023/06/19 10:28:23;;;;;;;15.18;8.52;;;;;;;;;;5050797;28;20041;-77
2023/06/19 10:30:59;;;;;;;15.10;9.10;;;;;;;;;;5051910;28;20037;-79
2023/06/19 10:33:26;;;;;;;15.35;9.10;;;;;;;;;;5050748;28;20094;-79
2023/06/19 10:35:52;;;;;;;14.10;9.10;;;;;;;;;;5050245;28;20064;-78
2023/06/19 10:38:18;;;;;;;13.82;10.02;;;;;;;;;;5052282;28;20436;-75
2023/06/19 10:40:45;;;;;;;12.52;9.68;;;;;;;;;;5051432;28;20036;-74
2023/06/19 10:43:12;;;;;;;14.82;10.27;;;;;;;;;;5050688;28;20032;-75
2023/06/19 10:45:38;;;;;;;13.82;10.40;;;;;;;;;;5050531;28;20044;-75
2023/06/19 10:48:05;;;;;;;14.82;10.65;;;;;;;;;;5034387;28;20045;-74
2023/06/19 10:50:35;;;;;;;13.13;10.18;;;;;;;;;;5069004;28;20483;-75
2023/06/19 10:53:01;;;;;;;13.63;9.80;;;;;;;;;;5067989;28;20049;-75
2023/06/19 10:55:27;;;;;;;13.85;9.48;;;;;;;;;;5034213;28;20032;-75
2023/06/19 10:57:54;;;;;;;14.80;10.88;;;;;;;;;;5050184;28;20037;-75
2023/06/19 11:00:24;;;;;;;14.30;10.57;;;;;;;;;;5050388;28;20041;-74
2023/06/19 11:02:50;;;;;;;12.40;9.73;;;;;;;;;;5050498;28;20375;-75
2023/06/19 11:05:16;;;;;;;15.38;10.40;;;;;;;;;;5050522;28;20128;-73
2023/06/19 11:07:42;;;;;;;15.63;11.43;;;;;;;;;;5051245;28;20044;-74
2023/06/19 11:10:19;;;;;;;15.88;11.10;;;;;;;;;;5051087;28;20540;-75
2023/06/19 11:12:45;;;;;;;13.27;10.25;;;;;;;;;;5054049;28;20080;-73
2023/06/19 11:15:14;;;;;;;14.63;10.93;;;;;;;;;;5053903;28;20080;-75
2023/06/19 11:17:40;;;;;;;18.65;11.10;;;;;;;;;;5054181;28;20040;-74
2023/06/19 11:20:10;;;;;;;14.77;10.20;;;;;;;;;;5053746;28;20037;-74
2023/06/19 11:22:40;;;;;;;15.23;10.80;;;;;;;;;;5054068;28;20069;-75
2023/06/19 11:25:07;;;;;;;16.52;11.15;;;;;;;;;;5053292;28;20110;-74
2023/06/19 11:27:34;;;;;;;15.80;10.30;;;;;;;;;;5055278;28;20379;-74
2023/06/19 11:30:04;;;;;;;16.35;10.82;;;;;;;;;;5036921;28;20071;-74
2023/06/19 11:32:42;;;;;;;15.32;9.90;;;;;;;;;;5054395;28;20482;-75
2023/06/19 11:35:10;;;;;;;19.50;10.65;;;;;;;;;;5053387;28;20045;-75
2023/06/19 11:37:37;;;;;;;11.93;10.60;;;;;;;;;;5037701;28;20560;-74
2023/06/19 11:40:10;;;;;;;13.93;10.20;;;;;;;;;;5053271;28;20044;-77
2023/06/19 11:42:44;;;;;;;16.48;10.30;;;;;;;;;;5053774;28;20143;-75
2023/06/19 11:45:10;;;;;;;15.07;10.23;;;;;;;;;;5053359;28;20098;-74
2023/06/19 11:47:37;;;;;;;16.92;10.45;;;;;;;;;;5056865;28;20048;-75
2023/06/19 11:50:07;;;;;;;14.20;9.75;;;;;;;;;;5055835;28;20051;-75
2023/06/19 11:52:33;;;;;;;14.77;9.05;;;;;;;;;;5058652;28;20037;-78
2023/06/19 11:54:59;;;;;;;12.18;8.48;;;;;;;;;;5075052;28;20109;-78
2023/06/19 11:57:27;;;;;;;12.40;8.65;;;;;;;;;;5056028;28;20114;-75
2023/06/19 11:59:53;;;;;;;11.68;8.20;;;;;;;;;;5070965;28;20099;-75
2023/06/19 12:02:19;;;;;;;9.70;7.70;;;;;;;;;;5038755;28;20041;-75
2023/06/19 12:04:45;;;;;;;14.52;7.93;;;;;;;;;;5055317;28;20040;-75
2023/06/19 12:07:11;;;;;;;20.10;8.18;;;;;;;;;;5054736;28;20048;-76
2023/06/19 12:09:38;;;;;;;13.73;8.73;;;;;;;;;;5056317;28;20039;-74
2023/06/19 12:12:05;;;;;;;16.42;8.68;;;;;;;;;;5053186;28;20041;-74
2023/06/19 12:14:31;;;;;;;10.50;7.53;;;;;;;;;;5070200;28;20559;-75
2023/06/19 12:16:57;;;;;;;10.98;8.70;;;;;;;;;;5036517;28;20049;-81
2023/06/19 12:19:23;;;;;;;17.45;8.52;;;;;;;;;;5054786;28;20087;-80
2023/06/19 12:21:49;;;;;;;12.73;7.72;;;;;;;;;;5054422;28;20045;-79
2023/06/19 12:24:16;;;;;;;10.63;7.78;;;;;;;;;;5037625;28;20053;-78
2023/06/19 12:26:42;;;;;;;14.45;8.30;;;;;;;;;;5053491;28;20052;-77
2023/06/19 12:29:08;;;;;;;12.38;8.38;;;;;;;;;;5052924;28;20805;-77
2023/06/19 12:31:36;;;;;;;14.65;7.78;;;;;;;;;;5053066;28;20095;-78
2023/06/19 12:34:02;;;;;;;11.52;7.88;;;;;;;;;;5052338;28;20040;-78
2023/06/19 12:36:31;;;;;;;13.40;7.32;;;;;;;;;;5052897;28;20049;-77
2023/06/19 12:38:57;;;;;;;12.30;8.25;;;;;;;;;;5052735;28;20053;-78
2023/06/19 12:41:23;;;;;;;11.95;7.28;;;;;;;;;;5052532;28;20064;-79
2023/06/19 12:43:49;;;;;;;12.70;7.35;;;;;;;;;;5053813;28;20052;-78
2023/06/19 12:46:15;;;;;;;9.13;7.28;;;;;;;;;;5052310;28;20033;-77
2023/06/19 12:48:42;;;;;;;13.63;6.80;;;;;;;;;;5056195;28;20119;-80
2023/06/19 12:51:08;;;;;;;11.63;7.28;;;;;;;;;;5055726;28;20489;-78
2023/06/19 12:53:34;;;;;;;13.50;7.72;;;;;;;;;;5073518;28;20055;-77
2023/06/19 12:56:00;;;;;;;10.48;7.28;;;;;;;;;;5072338;28;20397;-77
2023/06/19 12:58:27;;;;;;;15.55;7.40;;;;;;;;;;5073915;28;20040;-81
2023/06/19 13:00:54;;;;;;;14.57;6.68;;;;;;;;;;5072201;28;20055;-75
2023/06/19 13:03:20;;;;;;;13.32;6.55;;;;;;;;;;5073668;28;20489;-78
2023/06/19 13:05:47;;;;;;;9.05;6.07;;;;;;;;;;5072266;28;20036;-79
2023/06/19 13:08:13;;;;;;;8.13;6.18;;;;;;;;;;5072136;28;20099;-78
2023/06/19 13:10:40;;;;;;;8.52;5.70;;;;;;;;;;5041155;28;20128;-79
2023/06/19 13:13:06;;;;;;;9.82;6.75;;;;;;;;;;5063727;28;20116;-78
2023/06/19 13:15:35;;;;;;;9.50;6.47;;;;;;;;;;5060127;28;20474;-78
2023/06/19 13:18:01;;;;;;;8.38;6.10;;;;;;;;;;5073038;28;20504;-79
2023/06/19 13:20:27;;;;;;;11.40;5.65;;;;;;;;;;5072974;28;20075;-77
2023/06/19 13:22:54;;;;;;;14.38;6.40;;;;;;;;;;5071648;28;20119;-77
2023/06/19 13:25:20;;;;;;;12.02;5.35;;;;;;;;;;5072698;28;20057;-77
2023/06/19 13:27:46;;;;;;;9.25;5.78;;;;;;;;;;5058912;28;20038;-78
2023/06/19 13:30:13;;;;;;;9.43;5.20;;;;;;;;;;5072568;28;20055;-78
2023/06/19 13:32:39;;;;;;;22.15;5.75;;;;;;;;;;5072796;28;20033;-78
2023/06/19 13:35:08;;;;;;;7.60;6.28;;;;;;;;;;5072757;28;20501;-77
2023/06/19 13:37:41;;;;;;;10.40;5.88;;;;;;;;;;5071666;28;20049;-78
2023/06/19 13:40:07;;;;;;;12.07;6.20;;;;;;;;;;5068411;28;20063;-76
2023/06/19 13:42:35;;;;;;;17.23;6.45;;;;;;;;;;5039634;28;20040;-78
2023/06/19 13:45:02;;;;;;;10.02;5.82;;;;;;;;;;5052572;28;20045;-76
2023/06/19 13:47:28;;;;;;;8.80;5.50;;;;;;;;;;5052868;28;20033;-78
2023/06/19 13:49:54;;;;;;;9.77;5.50;;;;;;;;;;5064914;28;20037;-78
2023/06/19 13:52:20;;;;;;;21.80;6.45;;;;;;;;;;5070737;28;20036;-77
2023/06/19 13:54:46;;;;;;;8.63;4.40;;;;;;;;;;5060162;28;20059;-78
2023/06/19 13:57:13;;;;;;;8.85;4.75;;;;;;;;;;5069763;28;20536;-76
2023/06/19 13:59:39;;;;;;;8.57;4.75;;;;;;;;;;5064995;28;20045;-77
2023/06/19 14:02:05;;;;;;;17.15;6.20;;;;;;;;;;5050942;28;20482;-78
2023/06/19 14:04:31;;;;;;;11.45;6.10;;;;;;;;;;5051173;28;20041;-79
2023/06/19 14:06:58;;;;;;;12.85;6.13;;;;;;;;;;5051467;28;20041;-78
2023/06/19 14:09:24;;;;;;;11.18;6.15;;;;;;;;;;5052562;28;20049;-79
2023/06/19 14:11:50;;;;;;;8.15;5.40;;;;;;;;;;5051079;28;20129;-80
2023/06/19 14:14:16;;;;;;;16.45;5.30;;;;;;;;;;5034632;28;20448;-79
2023/06/19 14:16:42;;;;;;;9.35;5.55;;;;;;;;;;5050918;28;20045;-79
2023/06/19 14:19:08;;;;;;;8.40;5.50;;;;;;;;;;5050820;28;20045;-79
2023/06/19 14:21:34;;;;;;;10.05;5.28;;;;;;;;;;5052100;28;20045;-79
2023/06/19 14:24:00;;;;;;;9.05;6.03;;;;;;;;;;5050483;28;20045;-80
2023/06/19 14:26:26;;;;;;;10.68;5.90;;;;;;;;;;5067540;28;20048;-80
2023/06/19 14:28:56;;;;;;;7.75;5.25;;;;;;;;;;5051015;28;20038;-77